createdAt,value
2019-03-11T00:01:39.219Z,100532.64
2019-03-11T00:04:11.272Z,100519.55
2019-03-11T00:06:43.284Z,100539.13
2019-03-11T00:09:14.609Z,100530.27
2019-03-11T00:11:47.478Z,100526.89
2019-03-11T00:14:18.832Z,100529.33
2019-03-11T00:16:50.058Z,100530.47
2019-03-11T00:19:21.382Z,100536.30
2019-03-11T00:21:52.663Z,100533.13
2019-03-11T00:24:24.147Z,100562.71
2019-03-11T00:26:55.447Z,100545.83
2019-03-11T00:29:26.829Z,100554.64
2019-03-11T00:31:58.071Z,100545.98
2019-03-11T00:34:29.301Z,100545.98
2019-03-11T00:37:00.613Z,100567.91
2019-03-11T00:39:31.829Z,100567.91
2019-03-11T00:42:03.091Z,100553.29
2019-03-11T00:44:34.340Z,100562.37
2019-03-11T00:47:05.596Z,100546.84
2019-03-11T00:49:36.893Z,100573.30
2019-03-11T00:52:08.142Z,100548.16
2019-03-11T00:54:39.446Z,100568.27
2019-03-11T00:57:11.625Z,100560.92
2019-03-11T00:59:42.993Z,100566.81
2019-03-11T01:02:14.331Z,100566.81
2019-03-11T01:04:45.586Z,100555.41
2019-03-11T01:07:16.925Z,100572.80
2019-03-11T01:09:48.401Z,100555.94
2019-03-11T01:12:19.744Z,100549.83
2019-03-11T01:14:51.017Z,100544.69
2019-03-11T01:17:22.254Z,100553.08
2019-03-11T01:19:53.513Z,100556.96
2019-03-11T01:22:24.784Z,100545.44
2019-03-11T01:24:56.054Z,100539.56
2019-03-11T01:27:27.228Z,100545.77
2019-03-11T01:29:58.513Z,100548.91
2019-03-11T01:32:29.805Z,100534.75
2019-03-11T01:35:01.539Z,100534.75
2019-03-11T01:37:32.820Z,100517.33
2019-03-11T01:40:04.313Z,100517.33
2019-03-11T01:42:35.765Z,100528.83
2019-03-11T01:45:08.042Z,100520.24
2019-03-11T01:47:39.386Z,100529.80
2019-03-11T01:50:10.961Z,100536.24
2019-03-11T01:52:42.227Z,100517.63
2019-03-11T01:55:13.514Z,100528.02
2019-03-11T01:57:44.745Z,100517.88
2019-03-11T02:00:16.619Z,100517.88
2019-03-11T02:02:47.816Z,100504.83
2019-03-11T02:05:19.070Z,100507.25
2019-03-11T02:07:50.360Z,100507.25
2019-03-11T02:10:21.660Z,100517.20
2019-03-11T02:12:53.424Z,100519.45
2019-03-11T02:15:24.725Z,100522.20
2019-03-11T02:17:55.947Z,100515.53
2019-03-11T02:20:27.183Z,100517.84
2019-03-11T02:22:58.480Z,100513.25
2019-03-11T02:25:29.711Z,100502.96
2019-03-11T02:28:01.098Z,100494.46
2019-03-11T02:30:33.346Z,100515.40
2019-03-11T02:33:04.780Z,100501.48
2019-03-11T02:35:36.090Z,100504.23
2019-03-11T02:38:07.429Z,100508.63
2019-03-11T02:40:38.756Z,100523.41
2019-03-11T02:43:10.015Z,100509.53
2019-03-11T02:45:41.271Z,100504.44
2019-03-11T02:48:12.600Z,100513.44
2019-03-11T02:50:43.871Z,100502.86
2019-03-11T02:53:15.159Z,100502.86
2019-03-11T02:55:50.513Z,100493.77
2019-03-11T02:58:19.545Z,100497.28
2019-03-11T03:00:52.616Z,100514.03
2019-03-11T03:03:41.602Z,100494.53
2019-03-11T03:06:15.783Z,100491.06
2019-03-11T03:08:47.130Z,100486.53
2019-03-11T03:11:18.361Z,100486.53
2019-03-11T03:13:49.652Z,100494.61
2019-03-11T03:16:20.917Z,100496.57
2019-03-11T03:18:52.197Z,100474.55
2019-03-11T03:21:23.494Z,100481.75
2019-03-11T03:23:54.769Z,100481.75
2019-03-11T03:26:26.035Z,100493.94
2019-03-11T03:28:57.282Z,100493.94
2019-03-11T03:31:28.554Z,100492.64
2019-03-11T03:33:59.781Z,100493.83
2019-03-11T03:36:31.018Z,100484.63
2019-03-11T03:39:02.285Z,100495.80
2019-03-11T03:41:35.583Z,100495.30
2019-03-11T03:44:06.883Z,100494.06
2019-03-11T03:46:38.130Z,100495.58
2019-03-11T03:49:09.407Z,100489.08
2019-03-11T03:51:40.680Z,100489.08
2019-03-11T03:54:11.934Z,100496.98
2019-03-11T03:56:43.324Z,100488.17
2019-03-11T03:59:14.740Z,100496.77
2019-03-11T04:01:45.988Z,100496.77
2019-03-11T04:04:17.223Z,100489.75
2019-03-11T04:06:48.473Z,100484.97
2019-03-11T04:09:19.838Z,100490.45
2019-03-11T04:11:51.167Z,100481.08
2019-03-11T04:14:22.631Z,100484.97
2019-03-11T04:16:53.912Z,100489.75
2019-03-11T04:19:28.916Z,100489.75
2019-03-11T04:21:58.231Z,100499.75
2019-03-11T04:24:29.466Z,100494.56
2019-03-11T04:27:03.966Z,100488.06
2019-03-11T04:29:35.207Z,100488.06
2019-03-11T04:32:06.484Z,100486.83
2019-03-11T04:34:37.729Z,100480.48
2019-03-11T04:37:08.998Z,100480.48
2019-03-11T04:39:40.283Z,100479.81
2019-03-11T04:42:11.726Z,100481.22
2019-03-11T04:44:43.001Z,100472.93
2019-03-11T04:47:14.352Z,100479.15
2019-03-11T04:49:45.607Z,100478.73
2019-03-11T04:52:16.895Z,100477.84
2019-03-11T04:54:48.503Z,100480.83
2019-03-11T04:57:19.796Z,100488.73
2019-03-11T04:59:51.067Z,100481.47
2019-03-11T05:02:22.372Z,100485.47
2019-03-11T05:04:53.620Z,100487.16
2019-03-11T05:07:25.004Z,100491.97
2019-03-11T05:09:56.337Z,100484.56
2019-03-11T05:12:27.559Z,100484.56
2019-03-11T05:15:00.677Z,100476.27
2019-03-11T05:17:32.578Z,100475.74
2019-03-11T05:20:04.349Z,100470.55
2019-03-11T05:22:35.576Z,100468.51
2019-03-11T05:25:07.009Z,100464.22
2019-03-11T05:27:38.303Z,100476.72
2019-03-11T05:30:12.391Z,100475.42
2019-03-11T05:32:43.732Z,100487.50
2019-03-11T05:35:15.010Z,100477.00
2019-03-11T05:37:46.443Z,100470.37
2019-03-11T05:40:17.739Z,100480.16
2019-03-11T05:42:48.972Z,100480.16
2019-03-11T05:45:20.282Z,100470.95
2019-03-11T05:47:51.545Z,100468.01
2019-03-11T05:50:22.797Z,100465.13
2019-03-11T05:52:54.119Z,100470.61
2019-03-11T05:55:25.322Z,100468.39
2019-03-11T05:57:56.626Z,100474.39
2019-03-11T06:00:29.572Z,100472.35
2019-03-11T06:03:00.789Z,100472.35
2019-03-11T06:05:32.265Z,100464.84
2019-03-11T06:08:03.516Z,100464.63
2019-03-11T06:10:35.021Z,100478.11
2019-03-11T06:13:06.541Z,100491.09
2019-03-11T06:15:37.785Z,100475.95
2019-03-11T06:18:09.072Z,100484.77
2019-03-11T06:20:53.620Z,100488.73
2019-03-11T06:23:24.896Z,100488.73
2019-03-11T06:25:56.182Z,100477.20
2019-03-11T06:28:27.430Z,100495.88
2019-03-11T06:30:58.660Z,100516.16
2019-03-11T06:33:30.024Z,100508.65
2019-03-11T06:36:01.317Z,100501.24
2019-03-11T06:38:32.646Z,100490.25
2019-03-11T06:41:03.837Z,100497.94
2019-03-11T06:43:35.231Z,100502.48
2019-03-11T06:46:06.414Z,100495.08
2019-03-11T06:48:37.698Z,100492.16
2019-03-11T06:51:08.980Z,100501.96
2019-03-11T06:53:40.235Z,100491.88
2019-03-11T06:56:11.560Z,100517.32
2019-03-11T06:58:42.809Z,100493.53
2019-03-11T07:01:14.222Z,100493.53
2019-03-11T07:03:45.479Z,100495.69
2019-03-11T07:06:16.721Z,100507.09
2019-03-11T07:08:48.012Z,100512.41
2019-03-11T07:11:19.339Z,100513.42
2019-03-11T07:13:50.659Z,100506.27
2019-03-11T07:16:22.108Z,100519.09
2019-03-11T07:18:53.365Z,100499.17
2019-03-11T07:21:24.616Z,100511.99
2019-03-11T07:23:56.998Z,100497.75
2019-03-11T07:26:28.209Z,100506.82
2019-03-11T07:28:59.433Z,100506.03
2019-03-11T07:31:30.996Z,100506.03
2019-03-11T07:34:02.224Z,100517.11
2019-03-11T07:36:33.509Z,100517.11
2019-03-11T07:39:05.916Z,100515.36
2019-03-11T07:41:37.457Z,100522.91
2019-03-11T07:44:08.814Z,100524.42
2019-03-11T07:46:40.050Z,100535.95
2019-03-11T07:49:11.488Z,100531.11
2019-03-11T07:51:42.935Z,100540.14
2019-03-11T07:54:14.360Z,100531.88
2019-03-11T07:56:45.659Z,100532.23
2019-03-11T07:59:16.899Z,100531.87
2019-03-11T08:01:48.189Z,100541.19
2019-03-11T08:04:19.448Z,100529.41
2019-03-11T08:06:51.005Z,100533.77
2019-03-11T08:09:22.272Z,100532.11
2019-03-11T08:11:53.453Z,100547.25
2019-03-11T08:14:24.726Z,100534.97
2019-03-11T08:16:56.000Z,100535.32
2019-03-11T08:19:27.273Z,100548.25
2019-03-11T08:21:58.545Z,100548.17
2019-03-11T08:24:30.868Z,100532.47
2019-03-11T08:27:02.184Z,100526.69
2019-03-11T08:29:33.463Z,100559.44
2019-03-11T08:32:04.792Z,100527.63
2019-03-11T08:34:36.036Z,100542.18
2019-03-11T08:37:07.349Z,100548.99
2019-03-11T08:39:38.626Z,100552.81
2019-03-11T08:42:09.834Z,100555.66
2019-03-11T08:44:41.119Z,100538.54
2019-03-11T08:47:12.387Z,100539.03
2019-03-11T08:49:43.731Z,100544.05
2019-03-11T08:52:15.010Z,100538.65
2019-03-11T08:54:46.314Z,100554.61
2019-03-11T08:57:17.552Z,100545.30
2019-03-11T08:59:48.779Z,100551.91
2019-03-11T09:02:21.041Z,100539.91
2019-03-11T09:04:52.273Z,100527.60
2019-03-11T09:07:23.540Z,100537.02
2019-03-11T09:09:54.799Z,100526.92
2019-03-11T09:12:26.055Z,100546.08
2019-03-11T09:14:57.421Z,100551.39
2019-03-11T09:17:28.686Z,100535.98
2019-03-11T09:19:59.894Z,100536.66
2019-03-11T09:22:31.282Z,100539.34
2019-03-11T09:25:02.633Z,100533.20
2019-03-11T09:27:35.640Z,100548.98
2019-03-11T09:30:07.390Z,100543.75
2019-03-11T09:32:38.784Z,100565.84
2019-03-11T09:35:10.005Z,100541.56
2019-03-11T09:37:41.342Z,100568.16
2019-03-11T09:40:13.707Z,100554.11
2019-03-11T09:42:45.024Z,100553.20
2019-03-11T09:45:16.368Z,100598.22
2019-03-11T09:47:47.684Z,100550.38
2019-03-11T09:50:19.076Z,100558.20
2019-03-11T09:52:50.387Z,100558.30
2019-03-11T09:55:21.606Z,100571.53
2019-03-11T09:57:53.905Z,100558.45
2019-03-11T10:00:25.215Z,100562.17
2019-03-11T10:02:56.542Z,100559.47
2019-03-11T10:05:28.881Z,100583.22
2019-03-11T10:08:00.197Z,100575.17
2019-03-11T10:10:31.592Z,100589.08
2019-03-11T10:13:02.872Z,100583.09
2019-03-11T10:15:34.098Z,100599.21
2019-03-11T10:18:05.332Z,100586.17
2019-03-11T10:20:36.607Z,100613.83
2019-03-11T10:23:07.901Z,100587.38
2019-03-11T10:25:39.124Z,100593.90
2019-03-11T10:28:11.651Z,100601.52
2019-03-11T10:30:42.870Z,100597.90
2019-03-11T10:33:14.105Z,100609.53
2019-03-11T10:35:45.409Z,100605.91
2019-03-11T10:38:16.667Z,100599.00
2019-03-11T10:40:47.934Z,100607.21
2019-03-11T10:43:19.725Z,100600.41
2019-03-11T10:45:51.408Z,100605.09
2019-03-11T10:48:22.727Z,100597.38
2019-03-11T10:50:54.102Z,100600.12
2019-03-11T10:53:26.461Z,100607.84
2019-03-11T10:55:59.904Z,100608.08
2019-03-11T10:58:30.757Z,100624.44
2019-03-11T11:01:03.127Z,100613.20
2019-03-11T11:03:34.321Z,100602.71
2019-03-11T11:06:05.655Z,100611.64
2019-03-11T11:08:36.956Z,100606.33
2019-03-11T11:11:08.206Z,100604.44
2019-03-11T11:13:39.486Z,100616.08
2019-03-11T11:16:10.901Z,100616.08
2019-03-11T11:18:42.170Z,100661.47
2019-03-11T11:21:13.442Z,100621.34
2019-03-11T11:23:44.726Z,100636.98
2019-03-11T11:26:16.068Z,100626.08
2019-03-11T11:28:47.549Z,100643.94
2019-03-11T11:31:18.856Z,100679.23
2019-03-11T11:33:50.168Z,100641.72
2019-03-11T11:36:21.480Z,100654.98
2019-03-11T11:38:52.762Z,100635.44
2019-03-11T11:41:24.245Z,100645.34
2019-03-11T11:43:55.473Z,100653.59
2019-03-11T11:46:26.773Z,100654.27
2019-03-11T11:48:58.025Z,100646.55
2019-03-11T11:51:29.285Z,100649.67
2019-03-11T11:54:01.042Z,100653.27
2019-03-11T11:56:32.400Z,100664.70
2019-03-11T11:59:03.729Z,100657.41
2019-03-11T12:01:35.129Z,100649.29
2019-03-11T12:04:06.362Z,100653.59
2019-03-11T12:06:37.632Z,100659.72
2019-03-11T12:09:08.955Z,100654.08
2019-03-11T12:11:41.281Z,100648.87
2019-03-11T12:14:13.623Z,100644.27
2019-03-11T12:16:44.951Z,100661.61
2019-03-11T12:19:16.342Z,100668.42
2019-03-11T12:21:47.704Z,100661.31
2019-03-11T12:24:19.020Z,100682.95
2019-03-11T12:26:50.257Z,100677.55
2019-03-11T12:29:21.599Z,100685.55
2019-03-11T12:31:52.891Z,100666.63
2019-03-11T12:34:24.237Z,100667.83
2019-03-11T12:36:55.526Z,100689.19
2019-03-11T12:39:26.773Z,100686.09
2019-03-11T12:41:58.056Z,100691.79
2019-03-11T12:44:29.349Z,100687.68
2019-03-11T12:47:00.698Z,100680.97
2019-03-11T12:49:32.019Z,100688.66
2019-03-11T12:52:03.260Z,100698.59
2019-03-11T12:54:34.554Z,100689.17
2019-03-11T12:57:05.813Z,100685.86
2019-03-11T12:59:40.745Z,100730.03
2019-03-11T13:02:10.165Z,100701.83
2019-03-11T13:04:41.418Z,100719.45
2019-03-11T13:07:12.685Z,100720.41
2019-03-11T13:09:43.961Z,100718.91
2019-03-11T13:12:15.177Z,100741.75
2019-03-11T13:14:46.443Z,100725.34
2019-03-11T13:17:17.735Z,100740.02
2019-03-11T13:19:49.429Z,100726.61
2019-03-11T13:22:21.737Z,100726.11
2019-03-11T13:24:52.960Z,100730.03
2019-03-11T13:27:24.238Z,100738.77
2019-03-11T13:29:55.508Z,100726.77
2019-03-11T13:32:27.207Z,100732.34
2019-03-11T13:34:58.566Z,100718.52
2019-03-11T13:37:29.873Z,100710.80
2019-03-11T13:40:01.291Z,100724.67
2019-03-11T13:42:32.756Z,100718.75
2019-03-11T13:45:04.065Z,100716.44
2019-03-11T13:47:35.283Z,100729.09
2019-03-11T13:50:07.346Z,100730.05
2019-03-11T13:52:38.584Z,100729.35
2019-03-11T13:55:10.829Z,100730.80
2019-03-11T13:57:42.162Z,100733.33
2019-03-11T14:00:13.612Z,100728.44
2019-03-11T14:02:44.896Z,100732.67
2019-03-11T14:05:16.160Z,100733.08
2019-03-11T14:07:47.550Z,100744.29
2019-03-11T14:10:18.784Z,100734.28
2019-03-11T14:12:51.117Z,100784.38
2019-03-11T14:15:22.408Z,100771.73
2019-03-11T14:17:53.663Z,100767.45
2019-03-11T14:20:25.031Z,100751.44
2019-03-11T14:22:56.272Z,100764.31
2019-03-11T14:25:27.600Z,100758.59
2019-03-11T14:27:59.194Z,100759.80
2019-03-11T14:30:30.435Z,100755.91
2019-03-11T14:33:01.966Z,100758.02
2019-03-11T14:35:33.569Z,100774.92
2019-03-11T14:38:04.886Z,100780.66
2019-03-11T14:40:36.202Z,100781.02
2019-03-11T14:43:07.611Z,100775.52
2019-03-11T14:45:38.838Z,100777.52
2019-03-11T14:48:18.849Z,100782.32
2019-03-11T14:50:50.470Z,100779.91
2019-03-11T14:53:22.035Z,100793.75
2019-03-11T14:55:55.105Z,100777.70
2019-03-11T14:58:29.673Z,100779.07
2019-03-11T15:01:00.057Z,100780.80
2019-03-11T15:03:31.650Z,100783.38
2019-03-11T15:06:03.347Z,100780.57
2019-03-11T15:08:35.096Z,100783.47
2019-03-11T15:11:06.520Z,100796.19
2019-03-11T15:13:38.646Z,100788.55
2019-03-11T15:16:10.785Z,100786.77
2019-03-11T15:18:42.529Z,100788.16
2019-03-11T15:21:14.196Z,100790.78
2019-03-11T15:23:45.822Z,100792.47
2019-03-11T15:26:24.976Z,100793.67
2019-03-11T15:28:50.641Z,100807.30
2019-03-11T15:31:22.296Z,100822.89
2019-03-11T15:33:53.828Z,100820.01
2019-03-11T15:36:33.167Z,100812.86
2019-03-11T15:38:58.539Z,100825.07
2019-03-11T15:41:30.350Z,100821.00
2019-03-11T15:44:02.941Z,100820.47
2019-03-11T15:46:39.257Z,100817.73
2019-03-11T15:49:08.198Z,100831.31
2019-03-11T15:51:39.800Z,100826.60
2019-03-11T15:54:11.408Z,100839.30
2019-03-11T15:56:42.975Z,100835.62
2019-03-11T15:59:14.871Z,100829.07
2019-03-11T16:01:46.446Z,100839.80
2019-03-11T16:04:18.063Z,100830.20
2019-03-11T16:06:49.623Z,100828.42
2019-03-11T16:09:21.275Z,100842.12
2019-03-11T16:11:55.057Z,100838.38
2019-03-11T16:14:26.732Z,100837.84
2019-03-11T16:16:58.316Z,100834.02
2019-03-11T16:19:30.073Z,100847.37
2019-03-11T16:22:01.529Z,100846.87
2019-03-11T16:24:33.280Z,100850.77
2019-03-11T16:27:14.532Z,100842.05
2019-03-11T16:29:47.283Z,100845.30
2019-03-11T16:32:19.031Z,100840.75
2019-03-11T16:34:50.594Z,100849.85
2019-03-11T16:37:22.352Z,100850.77
2019-03-11T16:39:54.187Z,100848.17
2019-03-11T16:42:25.681Z,100848.28
2019-03-11T16:44:59.771Z,100846.98
2019-03-11T16:47:31.530Z,100851.80
2019-03-11T16:50:03.000Z,100847.37
2019-03-11T16:52:34.397Z,100852.19
2019-03-11T16:55:05.989Z,100862.05
2019-03-11T16:57:41.808Z,100856.09
2019-03-11T17:00:19.806Z,100851.54
2019-03-11T17:02:51.392Z,100851.54
2019-03-11T17:05:23.105Z,100847.91
2019-03-11T17:07:58.158Z,100862.27
2019-03-11T17:10:30.189Z,100869.42
2019-03-11T17:13:02.534Z,100882.00
2019-03-11T17:15:35.234Z,100888.45
2019-03-11T17:18:06.643Z,100883.59
2019-03-11T17:20:38.944Z,100890.97
2019-03-11T17:23:10.509Z,100900.94
2019-03-11T17:25:41.995Z,100897.69
2019-03-11T17:28:14.215Z,100911.30
2019-03-11T17:30:45.513Z,100910.11
2019-03-11T17:33:16.834Z,100917.38
2019-03-11T17:35:48.142Z,100923.60
2019-03-11T17:38:19.555Z,100913.85
2019-03-11T17:40:54.335Z,100929.47
2019-03-11T17:43:25.719Z,100930.05
2019-03-11T17:45:56.966Z,100930.05
2019-03-11T17:48:28.302Z,100938.08
2019-03-11T17:50:59.593Z,100941.48
2019-03-11T17:53:31.967Z,100944.25
2019-03-11T17:56:03.584Z,100950.52
2019-03-11T17:58:36.001Z,100947.55
2019-03-11T18:01:09.165Z,100966.13
2019-03-11T18:03:40.535Z,100970.03
2019-03-11T18:06:12.260Z,100972.14
2019-03-11T18:08:43.799Z,100987.98
2019-03-11T18:11:15.262Z,100989.39
2019-03-11T18:13:46.633Z,100993.03
2019-03-11T18:16:18.891Z,101000.69
2019-03-11T18:18:50.190Z,100997.81
2019-03-11T18:21:22.420Z,100997.55
2019-03-11T18:23:53.930Z,101008.98
2019-03-11T18:26:25.235Z,101012.35
2019-03-11T18:28:56.561Z,101017.17
2019-03-11T18:31:27.816Z,101025.32
2019-03-11T18:33:59.534Z,101031.06
2019-03-11T18:36:31.906Z,101028.58
2019-03-11T18:39:04.843Z,101028.42
2019-03-11T18:41:40.360Z,101032.17
2019-03-11T18:44:13.674Z,101036.30
2019-03-11T18:46:45.044Z,101032.12
2019-03-11T18:49:16.352Z,101035.11
2019-03-11T18:51:47.626Z,101035.61
2019-03-11T18:54:19.095Z,101048.08
2019-03-11T18:56:50.362Z,101053.02
2019-03-11T18:59:21.678Z,101064.58
2019-03-11T19:01:52.878Z,101067.30
2019-03-11T19:04:24.285Z,101066.11
2019-03-11T19:06:55.531Z,101069.25
2019-03-11T19:09:26.885Z,101071.05
2019-03-11T19:11:58.197Z,101082.88
2019-03-11T19:14:29.483Z,101084.87
2019-03-11T19:17:00.811Z,101090.34
2019-03-11T19:19:32.189Z,101088.02
2019-03-11T19:22:03.417Z,101099.73
2019-03-11T19:24:34.773Z,101107.81
2019-03-11T19:27:06.137Z,101112.63
2019-03-11T19:29:37.406Z,101110.14
2019-03-11T19:32:08.808Z,101118.57
2019-03-11T19:34:40.139Z,101122.63
2019-03-11T19:37:11.369Z,101126.92
2019-03-11T19:39:42.591Z,101131.20
2019-03-11T19:42:14.030Z,101133.92
2019-03-11T19:44:47.468Z,101143.19
2019-03-11T19:47:18.423Z,101142.77
2019-03-11T19:49:49.641Z,101152.80
2019-03-11T19:52:20.919Z,101158.02
2019-03-11T19:54:53.348Z,101157.90
2019-03-11T19:57:24.596Z,101159.20
2019-03-11T19:59:56.045Z,101169.08
2019-03-11T20:02:27.322Z,101168.97
2019-03-11T20:05:00.014Z,101184.09
2019-03-11T20:07:31.452Z,101191.37
2019-03-11T20:10:02.668Z,101193.08
2019-03-11T20:12:34.208Z,101194.23
2019-03-11T20:15:06.396Z,101205.56
2019-03-11T20:17:39.865Z,101214.69
2019-03-11T20:20:11.966Z,101222.11
2019-03-11T20:22:43.188Z,101220.92
2019-03-11T20:25:18.007Z,101224.83
2019-03-11T20:27:49.666Z,101225.75
2019-03-11T20:30:22.270Z,101221.97
2019-03-11T20:32:53.662Z,101225.06
2019-03-11T20:35:25.074Z,101229.63
2019-03-11T20:37:56.331Z,101234.03
2019-03-11T20:40:27.694Z,101242.77
2019-03-11T20:42:59.115Z,101251.88
2019-03-11T20:45:30.632Z,101259.45
2019-03-11T20:48:01.882Z,101271.17
2019-03-11T20:50:42.077Z,101278.07
2019-03-11T20:53:06.795Z,101288.48
2019-03-11T20:55:38.407Z,101295.92
2019-03-11T20:58:10.156Z,101301.89
2019-03-11T21:00:42.001Z,101309.84
2019-03-11T21:03:13.421Z,101327.03
2019-03-11T21:05:48.682Z,101333.94
2019-03-11T21:08:22.771Z,101332.66
2019-03-11T21:10:54.179Z,101335.78
2019-03-11T21:13:25.567Z,101336.34
2019-03-11T21:16:04.789Z,101344.12
2019-03-11T21:18:37.247Z,101352.61
2019-03-11T21:21:08.663Z,101360.81
2019-03-11T21:23:39.954Z,101372.91
2019-03-11T21:26:11.432Z,101379.67
2019-03-11T21:28:42.748Z,101384.47
2019-03-11T21:31:14.020Z,101391.64
2019-03-11T21:33:59.143Z,101402.30
2019-03-11T21:36:37.293Z,101398.12
2019-03-11T21:39:08.781Z,101396.81
2019-03-11T21:41:41.875Z,101394.50
2019-03-11T21:44:13.253Z,101407.89
2019-03-11T21:46:44.643Z,101412.05
2019-03-11T21:49:15.902Z,101421.66
2019-03-11T21:51:47.998Z,101431.81
2019-03-11T21:54:24.618Z,101450.44
2019-03-11T21:57:02.637Z,101453.42
2019-03-11T21:59:43.116Z,101452.50
2019-03-11T22:02:18.628Z,101458.38
2019-03-11T22:04:50.578Z,101464.63
2019-03-11T22:07:21.899Z,101473.48
2019-03-11T22:09:53.237Z,101482.46
2019-03-11T22:12:24.537Z,101482.59
2019-03-11T22:14:55.866Z,101486.75
2019-03-11T22:17:27.101Z,101483.89
2019-03-11T22:19:58.363Z,101492.75
2019-03-11T22:22:29.645Z,101502.65
2019-03-11T22:25:00.922Z,101500.05
2019-03-11T22:27:32.381Z,101502.65
2019-03-11T22:30:03.615Z,101507.19
2019-03-11T22:32:35.033Z,101514.74
2019-03-11T22:35:12.462Z,101522.93
2019-03-11T22:37:39.281Z,101531.91
2019-03-11T22:40:11.057Z,101534.38
2019-03-11T22:42:42.430Z,101536.06
2019-03-11T22:45:16.671Z,101539.59
2019-03-11T22:47:47.017Z,101546.34
2019-03-11T22:50:18.356Z,101544.50
2019-03-11T22:52:49.693Z,101546.05
2019-03-11T22:55:21.145Z,101549.58
2019-03-11T22:57:52.437Z,101540.34
2019-03-11T23:00:32.369Z,101548.41
2019-03-11T23:03:06.906Z,101559.61
2019-03-11T23:05:57.132Z,101550.75
2019-03-11T23:08:16.200Z,101548.52
2019-03-11T23:10:47.578Z,101547.64
2019-03-11T23:13:18.944Z,101557.25
2019-03-11T23:15:50.351Z,101567.66
2019-03-11T23:18:21.589Z,101560.22
2019-03-11T23:20:52.960Z,101566.61
2019-03-11T23:23:24.276Z,101570.13
2019-03-11T23:25:55.561Z,101563.50
2019-03-11T23:28:26.951Z,101566.86
2019-03-11T23:30:58.420Z,101557.75
2019-03-11T23:33:29.700Z,101566.10
2019-03-11T23:36:00.899Z,101573.11
2019-03-11T23:38:32.186Z,101574.95
2019-03-11T23:41:03.454Z,101585.37
2019-03-11T23:43:34.780Z,101575.33
2019-03-11T23:46:06.043Z,101578.32
2019-03-11T23:48:37.347Z,101592.00
2019-03-11T23:51:08.876Z,101592.00
2019-03-11T23:53:40.218Z,101575.05
2019-03-11T23:56:11.601Z,101594.98
2019-03-11T23:58:42.871Z,101589.91
